createdAt,value
2019-03-23T08:57:03.486Z,2.72
2019-03-23T08:59:34.822Z,3.77
2019-03-23T09:02:06.282Z,3.10
2019-03-23T09:04:37.942Z,2.72
2019-03-23T09:07:09.388Z,2.87
2019-03-23T09:09:40.752Z,3.47
2019-03-23T09:12:12.297Z,4.62
2019-03-23T09:14:43.848Z,4.10
2019-03-23T09:17:15.513Z,2.40
2019-03-23T09:19:46.973Z,3.15
2019-03-23T09:22:18.519Z,4.00
2019-03-23T09:24:50.076Z,2.62
2019-03-23T09:27:21.524Z,1.22
2019-03-23T09:29:53.184Z,2.70
2019-03-23T09:32:24.640Z,4.12
2019-03-23T09:34:56.502Z,2.40
2019-03-23T09:37:27.953Z,3.70
2019-03-23T09:40:09.963Z,2.10
2019-03-23T09:42:32.897Z,2.35
2019-03-23T09:45:06.608Z,2.15
2019-03-23T09:47:37.968Z,1.85
2019-03-23T09:50:10.440Z,2.05
2019-03-23T09:52:41.788Z,2.33
2019-03-23T09:55:13.445Z,2.85
2019-03-23T09:57:44.798Z,5.45
2019-03-23T10:00:16.559Z,5.33
2019-03-23T10:02:47.953Z,4.30
2019-03-23T10:05:19.563Z,4.83
2019-03-23T10:07:50.857Z,3.70
2019-03-23T10:10:22.386Z,2.37
2019-03-23T10:12:53.929Z,2.52
2019-03-23T10:15:25.798Z,2.02
2019-03-23T10:17:57.243Z,2.50
2019-03-23T10:20:28.898Z,2.45
2019-03-23T10:23:00.258Z,1.90
2019-03-23T10:25:31.908Z,1.95
2019-03-23T10:28:03.366Z,2.40
2019-03-23T10:30:34.829Z,2.58
2019-03-23T10:33:06.265Z,2.20
2019-03-23T10:35:37.824Z,2.08
2019-03-23T10:38:09.484Z,2.27
2019-03-23T10:40:42.930Z,2.60
2019-03-23T10:43:13.884Z,3.62
2019-03-23T10:45:45.478Z,3.67
2019-03-23T10:48:17.032Z,2.75
2019-03-23T10:50:48.479Z,2.00
2019-03-23T10:53:23.185Z,2.22
2019-03-23T10:55:53.136Z,2.42
2019-03-23T10:58:24.504Z,2.20
2019-03-23T11:00:56.036Z,2.27
2019-03-23T11:03:27.490Z,3.00
2019-03-23T11:05:59.150Z,2.45
2019-03-23T11:08:30.511Z,4.40
2019-03-23T11:11:02.262Z,3.37
2019-03-23T11:13:33.808Z,2.98
2019-03-23T11:16:05.471Z,2.65
2019-03-23T11:18:37.886Z,2.37
2019-03-23T11:21:09.317Z,2.80
2019-03-23T11:23:40.755Z,3.10
2019-03-23T11:26:12.445Z,2.58
2019-03-23T11:28:43.866Z,2.37
2019-03-23T11:31:16.567Z,2.65
2019-03-23T11:33:48.107Z,2.98
2019-03-23T11:36:19.659Z,3.70
2019-03-23T11:38:50.894Z,3.60
2019-03-23T11:41:22.564Z,9.78
2019-03-23T11:43:54.432Z,4.08
2019-03-23T11:46:25.879Z,2.87
2019-03-23T11:48:57.231Z,3.87
2019-03-23T11:51:28.894Z,4.15
2019-03-23T11:54:00.237Z,4.30
2019-03-23T11:56:31.898Z,3.25
2019-03-23T11:59:03.273Z,5.62
2019-03-23T12:01:35.016Z,3.87
2019-03-23T12:04:06.489Z,2.90
2019-03-23T12:06:37.738Z,4.90
2019-03-23T12:09:09.266Z,4.15
2019-03-23T12:11:40.481Z,4.42
2019-03-23T12:14:12.172Z,10.65
2019-03-23T12:16:43.737Z,11.95
2019-03-23T12:19:15.388Z,7.45
2019-03-23T12:21:47.149Z,4.10
2019-03-23T12:24:18.802Z,9.45
2019-03-23T12:26:50.365Z,5.33
2019-03-23T12:29:21.832Z,3.50
2019-03-23T12:31:53.473Z,4.75
2019-03-23T12:34:25.022Z,3.33
2019-03-23T12:36:56.683Z,4.05
2019-03-23T12:39:28.340Z,3.50
2019-03-23T12:41:59.895Z,2.72
2019-03-23T12:44:31.553Z,3.12
2019-03-23T12:47:03.210Z,2.92
2019-03-23T12:49:34.871Z,3.75
2019-03-23T12:52:06.322Z,2.60
2019-03-23T12:54:37.982Z,4.22
2019-03-23T12:57:09.538Z,4.12
2019-03-23T12:59:41.198Z,4.05
2019-03-23T13:02:12.647Z,3.90
2019-03-23T13:04:44.310Z,5.72
2019-03-23T13:07:15.862Z,3.30
2019-03-23T13:09:47.214Z,4.12
2019-03-23T13:12:18.867Z,3.10
2019-03-23T13:14:50.222Z,4.72
2019-03-23T13:17:21.774Z,3.50
2019-03-23T13:19:53.339Z,4.17
2019-03-23T13:22:24.988Z,3.75
2019-03-23T13:24:56.443Z,3.20
2019-03-23T13:27:28.100Z,2.62
2019-03-23T13:30:02.008Z,2.55
2019-03-23T13:32:33.671Z,3.37
2019-03-23T13:35:05.738Z,3.62
2019-03-23T13:37:37.290Z,2.33
2019-03-23T13:40:10.789Z,3.05
2019-03-23T13:42:42.037Z,2.35
2019-03-23T13:45:13.492Z,2.65
2019-03-23T13:47:45.052Z,3.47
2019-03-23T13:50:27.348Z,5.20
2019-03-23T13:52:58.709Z,4.80
2019-03-23T13:55:33.427Z,3.37
2019-03-23T13:58:09.611Z,3.47
2019-03-23T14:00:42.068Z,3.15
2019-03-23T14:03:13.720Z,3.17
2019-03-23T14:05:45.173Z,4.15
2019-03-23T14:08:16.832Z,4.20
2019-03-23T14:10:48.491Z,4.35
2019-03-23T14:13:19.950Z,5.37
2019-03-23T14:15:51.805Z,6.12
2019-03-23T14:18:23.262Z,3.90
2019-03-23T14:20:55.019Z,3.83
2019-03-23T14:23:26.469Z,4.67
2019-03-23T14:25:58.127Z,4.53
2019-03-23T14:28:29.588Z,10.60
2019-03-23T14:31:01.445Z,8.08
2019-03-23T14:33:33.311Z,9.28
2019-03-23T14:36:04.877Z,7.83
2019-03-23T14:38:36.624Z,7.92
2019-03-23T14:41:08.301Z,11.33
2019-03-23T14:43:40.144Z,10.08
2019-03-23T14:46:11.908Z,12.95
2019-03-23T14:48:43.364Z,10.58
2019-03-23T14:51:15.117Z,8.73
2019-03-23T14:53:46.979Z,5.50
2019-03-23T14:56:18.434Z,7.55
2019-03-23T14:58:53.162Z,6.10
2019-03-23T15:01:24.721Z,5.17
2019-03-23T15:03:56.370Z,7.12
2019-03-23T15:06:27.857Z,25.60
2019-03-23T15:08:59.585Z,8.95
2019-03-23T15:11:31.171Z,7.70
2019-03-23T15:14:02.902Z,5.50
2019-03-23T15:16:34.458Z,6.17
2019-03-23T15:19:06.049Z,6.62
2019-03-23T15:21:37.776Z,6.95
2019-03-23T15:24:09.532Z,9.23
2019-03-23T15:26:41.294Z,8.43
2019-03-23T15:29:12.887Z,6.62
2019-03-23T15:31:44.616Z,7.35
2019-03-23T15:34:16.170Z,6.92
2019-03-23T15:36:47.719Z,6.67
2019-03-23T15:39:19.175Z,5.65
2019-03-23T15:41:51.035Z,6.60
2019-03-23T15:44:22.597Z,5.95
2019-03-23T15:46:54.351Z,5.97
2019-03-23T15:49:25.804Z,4.70
2019-03-23T15:51:57.360Z,3.87
2019-03-23T15:54:29.158Z,4.42
2019-03-23T15:57:00.873Z,5.17
2019-03-23T15:59:32.540Z,5.62
2019-03-23T16:02:04.202Z,4.45
2019-03-23T16:04:35.640Z,5.03
2019-03-23T16:07:07.213Z,4.72
2019-03-23T16:09:38.566Z,5.20
2019-03-23T16:12:10.114Z,6.12
2019-03-23T16:14:41.561Z,6.25
2019-03-23T16:17:13.114Z,5.95
2019-03-23T16:19:44.700Z,7.97
2019-03-23T16:22:16.439Z,6.42
2019-03-23T16:24:48.194Z,7.70
2019-03-23T16:27:19.678Z,5.00
2019-03-23T16:29:51.305Z,5.20
2019-03-23T16:32:22.860Z,4.70
2019-03-23T16:34:54.219Z,6.72
2019-03-23T16:37:26.077Z,4.67
2019-03-23T16:39:58.857Z,4.12
2019-03-23T16:42:30.617Z,4.62
2019-03-23T16:45:02.281Z,4.72
2019-03-23T16:47:33.946Z,5.42
2019-03-23T16:50:08.011Z,6.28
2019-03-23T16:52:39.516Z,5.47
2019-03-23T16:55:11.568Z,9.03
2019-03-23T16:57:43.124Z,5.45
2019-03-23T17:00:16.581Z,7.03
2019-03-23T17:02:50.763Z,4.97
2019-03-23T17:05:24.619Z,5.78
2019-03-23T17:07:58.480Z,6.00
2019-03-23T17:10:32.504Z,6.10
2019-03-23T17:13:06.606Z,8.30
2019-03-23T17:15:40.733Z,5.58
2019-03-23T17:18:14.725Z,4.83
2019-03-23T17:20:49.255Z,4.95
2019-03-23T17:23:23.149Z,5.30
2019-03-23T17:25:58.678Z,4.97
2019-03-23T17:28:32.651Z,5.58
2019-03-23T17:31:06.462Z,6.90
2019-03-23T17:33:40.734Z,7.72
2019-03-23T17:36:14.906Z,5.55
2019-03-23T17:38:50.735Z,6.73
2019-03-23T17:41:24.706Z,5.75
2019-03-23T17:43:58.921Z,5.55
2019-03-23T17:46:35.045Z,5.75
2019-03-23T17:49:10.179Z,5.65
2019-03-23T17:51:44.244Z,7.00
2019-03-23T17:54:18.542Z,6.95
2019-03-23T17:56:54.035Z,7.37
2019-03-23T17:59:28.479Z,6.78
2019-03-23T18:02:02.632Z,6.53
2019-03-23T18:04:36.711Z,5.78
2019-03-23T18:07:10.725Z,6.20
2019-03-23T18:09:45.044Z,7.92
2019-03-23T18:12:19.223Z,8.00
2019-03-23T18:14:53.441Z,5.58
2019-03-23T18:17:27.352Z,11.38
2019-03-23T18:20:01.880Z,6.25
2019-03-23T18:22:35.967Z,11.43
2019-03-23T18:25:12.481Z,5.85
2019-03-23T18:27:48.593Z,5.28
2019-03-23T18:30:36.977Z,5.75
2019-03-23T18:33:10.958Z,5.95
2019-03-23T18:35:48.175Z,6.20
2019-03-23T18:38:23.803Z,6.17
2019-03-23T18:40:57.987Z,6.90
2019-03-23T18:43:32.658Z,9.73
2019-03-23T18:46:08.307Z,9.73
2019-03-23T18:48:42.986Z,9.15
2019-03-23T18:51:17.828Z,9.60
2019-03-23T18:53:53.715Z,7.20
2019-03-23T18:56:27.718Z,9.38
2019-03-23T18:59:02.006Z,6.78
2019-03-23T19:01:36.040Z,6.83
2019-03-23T19:04:12.623Z,6.22
2019-03-23T19:09:23.428Z,6.90
2019-03-23T19:11:57.673Z,6.10
2019-03-23T19:14:32.169Z,8.08
2019-03-23T19:17:06.429Z,7.65
2019-03-23T19:19:40.690Z,7.55
2019-03-23T19:22:15.038Z,7.97
2019-03-23T19:24:50.197Z,9.98
2019-03-23T19:27:24.593Z,7.42
2019-03-23T19:29:58.899Z,8.43
2019-03-23T19:32:33.257Z,8.67
2019-03-23T19:35:07.726Z,10.63
2019-03-23T19:37:42.228Z,6.95
2019-03-23T19:40:16.465Z,7.27
2019-03-23T19:42:50.569Z,7.75
2019-03-23T19:45:24.701Z,6.95
2019-03-23T19:47:58.687Z,7.42
2019-03-23T19:50:34.201Z,6.87
2019-03-23T19:53:08.054Z,11.97
2019-03-23T19:55:42.191Z,15.72
2019-03-23T19:58:16.431Z,12.15
2019-03-23T20:00:50.715Z,13.70
2019-03-23T20:03:25.001Z,8.25
2019-03-23T20:06:00.547Z,7.70
2019-03-23T20:08:34.567Z,11.80
2019-03-23T20:11:08.942Z,11.55
2019-03-23T20:13:43.050Z,9.13
2019-03-23T20:16:18.972Z,10.03
2019-03-23T20:18:53.855Z,10.30
2019-03-23T20:21:30.612Z,8.90
2019-03-23T20:24:04.848Z,8.28
2019-03-23T20:26:40.627Z,6.90
2019-03-23T20:29:15.097Z,7.33
2019-03-23T20:31:50.296Z,6.57
2019-03-23T20:34:24.330Z,12.58
2019-03-23T20:36:58.691Z,11.30
2019-03-23T20:39:32.627Z,8.50
2019-03-23T20:42:06.698Z,8.58
2019-03-23T20:44:40.683Z,9.33
2019-03-23T20:47:14.832Z,12.30
2019-03-23T20:49:48.968Z,9.15
2019-03-23T20:52:22.914Z,8.68
2019-03-23T20:54:56.882Z,9.43
2019-03-23T20:57:37.358Z,9.43
2019-03-23T21:00:08.784Z,9.35
2019-03-23T21:02:42.883Z,8.30
2019-03-23T21:05:16.983Z,12.15
2019-03-23T21:07:51.194Z,7.55
2019-03-23T21:10:26.028Z,11.08
2019-03-23T21:13:00.037Z,12.30
2019-03-23T21:15:33.965Z,12.23
2019-03-23T21:18:08.209Z,11.15
2019-03-23T21:20:42.217Z,11.55
2019-03-23T21:23:16.090Z,9.53
2019-03-23T21:25:50.332Z,8.83
2019-03-23T21:28:24.106Z,8.23
2019-03-23T21:30:57.660Z,9.18
2019-03-23T21:33:32.118Z,8.83
2019-03-23T21:38:39.217Z,9.10
2019-03-23T21:41:11.225Z,8.48
2019-03-23T21:43:43.091Z,10.53
2019-03-23T21:46:14.841Z,11.03
2019-03-23T21:48:46.400Z,9.13
2019-03-23T21:51:18.152Z,10.63
2019-03-23T21:53:49.920Z,10.20
2019-03-23T21:56:21.470Z,10.65
2019-03-23T21:58:53.232Z,14.23
2019-03-23T22:01:24.689Z,11.63
2019-03-23T22:03:56.545Z,15.03
2019-03-23T22:06:28.412Z,19.42
2019-03-23T22:08:59.959Z,12.63
2019-03-23T22:11:31.626Z,11.78
2019-03-23T22:14:03.581Z,11.78
2019-03-23T22:16:36.673Z,10.65
2019-03-23T22:19:08.330Z,10.15
2019-03-23T22:21:40.202Z,10.38
2019-03-23T22:24:11.661Z,17.82
2019-03-23T22:26:43.614Z,16.97
2019-03-23T22:29:15.477Z,12.65
2019-03-23T22:31:47.041Z,10.18
2019-03-23T22:34:19.920Z,11.65
2019-03-23T22:36:51.578Z,14.05
2019-03-23T22:39:23.437Z,14.55
2019-03-23T22:41:54.889Z,14.15
2019-03-23T22:44:26.565Z,11.28
2019-03-23T22:46:59.328Z,10.45
2019-03-23T22:49:31.097Z,10.43
2019-03-23T22:52:02.611Z,11.03
2019-03-23T22:54:34.306Z,13.35
2019-03-23T22:57:05.862Z,14.25
2019-03-23T22:59:37.727Z,16.42
2019-03-23T23:02:09.391Z,15.00
2019-03-23T23:04:41.038Z,10.20
2019-03-23T23:07:12.799Z,11.60
2019-03-23T23:09:44.350Z,12.73
2019-03-23T23:12:16.113Z,12.25
2019-03-23T23:14:47.670Z,11.50
2019-03-23T23:17:19.428Z,11.90
2019-03-23T23:19:51.193Z,10.58
2019-03-23T23:22:22.677Z,10.98
2019-03-23T23:24:54.402Z,11.12
2019-03-23T23:27:25.966Z,11.50
2019-03-23T23:29:57.720Z,12.05
2019-03-23T23:32:29.378Z,11.35
2019-03-23T23:35:01.756Z,12.40
2019-03-23T23:37:33.512Z,16.20
2019-03-23T23:40:06.910Z,12.18
2019-03-23T23:42:38.366Z,18.52
2019-03-23T23:45:15.756Z,11.97
2019-03-23T23:47:44.029Z,12.25
2019-03-23T23:50:18.450Z,11.12
2019-03-23T23:52:50.325Z,11.73
2019-03-23T23:55:22.176Z,11.22
2019-03-23T23:57:53.733Z,11.85
